Dachen Dao, China
Current Conditions -  °F | °C
As of 11:00 AM on Thursday 23 Oct 2014 (Local Time) from ZSNB Reporting Station
Scattered Clouds Scattered Clouds  
Wind Chill: 70°   Ceiling: Unl
Heat Index: 70°   Visibility: 6mi
Dew Point: 54°   Wind: 7mph
Humidity: 56%   Direction: 100°E
Pressure: 30.15"   Gusts: NA
Location:  28.45°N, 121.88°E
Report Text: ZSNB 230300Z 10003MPS 060V130 9999 SCT023 21/12 Q1021 NOSIG
Loading
Personal Weather Stations






























Interactive Weather Map
Tropical Storm Tracking
New forecast layout! Learn more

10-Day Weather Forecast

Advertisements
Track Severe Weather on mobile